Time;durP1;ratioP1;P1;durP2;ratioP2;P2;SDS_P1;SDS_P2;PMS_P1;PMS_P2;Temp;Humidity;BMP_temperature;BMP_pressure;BME280_temperature;BME280_humidity;BME280_pressure;Samples;Min_cycle;Max_cycle;Signal;HPM_P1;HPM_P2
2023/03/11 00:02:06;;;;;;;5.20;3.00;;;;;;;;;;5075914;28;20083;-57
2023/03/11 00:04:32;;;;;;;9.48;4.25;;;;;;;;;;5077966;28;20552;-57
2023/03/11 00:06:58;;;;;;;5.93;3.17;;;;;;;;;;5076574;28;20051;-57
2023/03/11 00:09:24;;;;;;;5.95;3.33;;;;;;;;;;5078793;28;20694;-57
2023/03/11 00:11:50;;;;;;;7.35;3.42;;;;;;;;;;5079313;28;20121;-57
2023/03/11 00:14:17;;;;;;;8.23;3.72;;;;;;;;;;5078852;28;20084;-57
2023/03/11 00:16:43;;;;;;;7.40;4.22;;;;;;;;;;5080244;28;20651;-57
2023/03/11 00:19:10;;;;;;;4.85;2.70;;;;;;;;;;5079523;28;20181;-57
2023/03/11 00:21:36;;;;;;;6.43;3.88;;;;;;;;;;5078951;28;20045;-57
2023/03/11 00:24:02;;;;;;;6.60;3.58;;;;;;;;;;5081868;28;20049;-58
2023/03/11 00:26:29;;;;;;;4.22;3.20;;;;;;;;;;5084898;28;20067;-58
2023/03/11 00:28:55;;;;;;;4.30;3.25;;;;;;;;;;5083153;28;20036;-58
2023/03/11 00:31:21;;;;;;;7.63;4.10;;;;;;;;;;5084879;28;20041;-58
2023/03/11 00:33:48;;;;;;;8.57;3.78;;;;;;;;;;5080733;28;20593;-58
2023/03/11 00:36:34;;;;;;;4.20;3.33;;;;;;;;;;5081259;28;20530;-57
2023/03/11 00:39:01;;;;;;;5.93;3.63;;;;;;;;;;5082304;28;20040;-57
2023/03/11 00:41:27;;;;;;;4.78;3.28;;;;;;;;;;5083463;28;20556;-57
2023/03/11 00:43:53;;;;;;;5.38;3.75;;;;;;;;;;5080315;28;20040;-58
2023/03/11 00:46:19;;;;;;;7.20;3.80;;;;;;;;;;5082814;28;20051;-58
2023/03/11 00:48:46;;;;;;;6.93;3.75;;;;;;;;;;5081704;28;20036;-57
2023/03/11 00:51:13;;;;;;;6.43;3.60;;;;;;;;;;5082523;28;20048;-57
2023/03/11 00:53:39;;;;;;;5.50;3.03;;;;;;;;;;5082993;28;20067;-58
2023/03/11 00:56:09;;;;;;;6.53;3.95;;;;;;;;;;5081735;28;20037;-58
2023/03/11 00:58:35;;;;;;;4.40;3.47;;;;;;;;;;5084254;28;20056;-58
2023/03/11 01:01:06;;;;;;;7.57;3.35;;;;;;;;;;5080815;28;20580;-57
2023/03/11 01:03:32;;;;;;;5.97;3.47;;;;;;;;;;5084001;28;20615;-58
2023/03/11 01:05:58;;;;;;;5.15;3.38;;;;;;;;;;5080690;28;20177;-58
2023/03/11 01:08:25;;;;;;;4.97;3.28;;;;;;;;;;5085224;28;20470;-57
2023/03/11 01:10:52;;;;;;;9.40;4.15;;;;;;;;;;5080537;28;20045;-57
2023/03/11 01:13:18;;;;;;;9.52;3.60;;;;;;;;;;5081650;27;20049;-57
2023/03/11 01:15:44;;;;;;;12.05;5.28;;;;;;;;;;5076350;27;20115;-57
2023/03/11 01:18:10;;;;;;;6.95;4.43;;;;;;;;;;5081966;28;20048;-58
2023/03/11 01:20:37;;;;;;;6.20;3.95;;;;;;;;;;5079555;28;20087;-58
2023/03/11 01:23:03;;;;;;;11.45;4.22;;;;;;;;;;5081267;28;20041;-58
2023/03/11 01:25:30;;;;;;;7.43;4.57;;;;;;;;;;5082877;28;20044;-57
2023/03/11 01:27:56;;;;;;;8.38;4.30;;;;;;;;;;5082771;28;20062;-58
2023/03/11 01:30:23;;;;;;;7.60;4.53;;;;;;;;;;5081826;28;20190;-58
2023/03/11 01:32:50;;;;;;;5.88;4.43;;;;;;;;;;5081829;28;20044;-58
2023/03/11 01:35:17;;;;;;;7.03;4.10;;;;;;;;;;5081987;28;20052;-57
2023/03/11 01:37:43;;;;;;;8.98;5.32;;;;;;;;;;5082621;28;20131;-57
2023/03/11 01:40:14;;;;;;;6.82;4.20;;;;;;;;;;5081238;28;20550;-58
2023/03/11 01:42:40;;;;;;;12.57;5.38;;;;;;;;;;5084072;28;20048;-57
2023/03/11 01:45:26;;;;;;;8.85;5.97;;;;;;;;;;5079442;28;20098;-58
2023/03/11 01:47:52;;;;;;;6.53;4.97;;;;;;;;;;5082309;28;20119;-58
2023/03/11 01:50:18;;;;;;;6.78;5.05;;;;;;;;;;5080614;28;20048;-57
2023/03/11 01:52:44;;;;;;;8.95;4.90;;;;;;;;;;5079647;28;20051;-57
2023/03/11 01:55:12;;;;;;;7.80;5.32;;;;;;;;;;5081793;28;20518;-58
2023/03/11 01:57:38;;;;;;;8.98;5.60;;;;;;;;;;5079184;28;21022;-58
2023/03/11 02:00:07;;;;;;;8.48;5.28;;;;;;;;;;5081300;28;20594;-57
2023/03/11 02:02:40;;;;;;;12.93;6.72;;;;;;;;;;5081889;28;20047;-57
2023/03/11 02:05:06;;;;;;;9.27;5.30;;;;;;;;;;5080566;28;20094;-58
2023/03/11 02:07:32;;;;;;;7.82;5.72;;;;;;;;;;5083963;28;20044;-57
2023/03/11 02:09:58;;;;;;;7.90;5.38;;;;;;;;;;5079504;28;21156;-58
2023/03/11 02:12:28;;;;;;;10.68;5.35;;;;;;;;;;5080568;28;20044;-58
2023/03/11 02:14:54;;;;;;;10.98;5.65;;;;;;;;;;5079841;28;20109;-57
2023/03/11 02:17:21;;;;;;;8.30;5.03;;;;;;;;;;5079531;28;20053;-57
2023/03/11 02:19:50;;;;;;;10.65;6.97;;;;;;;;;;5078846;28;20093;-58
2023/03/11 02:22:16;;;;;;;15.65;8.13;;;;;;;;;;5080012;28;20083;-58
2023/03/11 02:24:45;;;;;;;12.85;6.75;;;;;;;;;;5077747;28;20044;-57
2023/03/11 02:27:13;;;;;;;10.50;7.25;;;;;;;;;;5080025;28;20047;-57
2023/03/11 02:29:39;;;;;;;12.82;7.68;;;;;;;;;;5080011;28;20641;-58
2023/03/11 02:32:07;;;;;;;12.95;7.78;;;;;;;;;;5079761;28;20602;-58
2023/03/11 02:34:34;;;;;;;13.43;7.05;;;;;;;;;;5078976;28;20510;-57
2023/03/11 02:37:03;;;;;;;13.93;7.15;;;;;;;;;;5076744;28;20037;-58
2023/03/11 02:39:30;;;;;;;11.82;8.63;;;;;;;;;;5081067;27;20127;-58
2023/03/11 02:41:56;;;;;;;12.35;7.93;;;;;;;;;;5080554;28;20070;-57
2023/03/11 02:44:22;;;;;;;13.85;8.52;;;;;;;;;;5081644;27;20040;-57
2023/03/11 02:46:48;;;;;;;15.20;8.35;;;;;;;;;;5077921;28;20038;-57
2023/03/11 02:49:15;;;;;;;10.40;7.28;;;;;;;;;;5078857;28;20044;-58
2023/03/11 02:51:41;;;;;;;13.45;7.07;;;;;;;;;;5078925;28;20051;-58
2023/03/11 02:54:07;;;;;;;11.05;6.40;;;;;;;;;;5079221;28;20044;-57
2023/03/11 02:56:33;;;;;;;14.13;7.88;;;;;;;;;;5076496;28;20036;-58
2023/03/11 02:58:59;;;;;;;10.25;6.00;;;;;;;;;;5083405;28;21224;-57
2023/03/11 03:01:25;;;;;;;13.32;5.90;;;;;;;;;;5080419;28;20124;-57
2023/03/11 03:03:51;;;;;;;11.13;5.57;;;;;;;;;;5080290;28;20119;-58
2023/03/11 03:06:17;;;;;;;8.60;5.80;;;;;;;;;;5081019;28;20036;-57
2023/03/11 03:08:44;;;;;;;7.70;4.15;;;;;;;;;;5080416;28;20036;-56
2023/03/11 03:11:10;;;;;;;8.05;4.05;;;;;;;;;;5079687;28;20115;-57
2023/03/11 03:13:36;;;;;;;6.45;4.07;;;;;;;;;;5082253;28;20051;-57
2023/03/11 03:16:02;;;;;;;5.50;3.45;;;;;;;;;;5076821;28;20477;-57
2023/03/11 03:18:28;;;;;;;5.45;3.70;;;;;;;;;;5080621;28;20075;-57
2023/03/11 03:20:54;;;;;;;6.55;2.90;;;;;;;;;;5080648;27;20044;-57
2023/03/11 03:23:21;;;;;;;5.53;3.10;;;;;;;;;;5080219;28;20044;-57
2023/03/11 03:25:47;;;;;;;4.22;2.60;;;;;;;;;;5078544;28;20036;-57
2023/03/11 03:28:13;;;;;;;4.88;2.72;;;;;;;;;;5080945;28;20048;-57
2023/03/11 03:30:39;;;;;;;4.75;2.35;;;;;;;;;;5078820;28;20347;-57
2023/03/11 03:33:06;;;;;;;7.68;2.08;;;;;;;;;;5079515;28;20530;-57
2023/03/11 03:35:32;;;;;;;6.60;4.35;;;;;;;;;;5077976;28;20037;-57
2023/03/11 03:37:58;;;;;;;6.03;2.95;;;;;;;;;;5082262;28;20095;-57
2023/03/11 03:40:24;;;;;;;4.20;2.85;;;;;;;;;;5080275;28;20051;-57
2023/03/11 03:42:50;;;;;;;6.85;3.72;;;;;;;;;;5080697;28;20048;-57
2023/03/11 03:45:16;;;;;;;6.63;3.10;;;;;;;;;;5076673;28;20153;-57
2023/03/11 03:47:42;;;;;;;5.00;2.08;;;;;;;;;;5077416;28;20071;-57
2023/03/11 03:50:10;;;;;;;5.75;2.35;;;;;;;;;;5077975;28;20051;-57
2023/03/11 03:52:37;;;;;;;6.15;2.88;;;;;;;;;;5080154;28;20590;-57
2023/03/11 03:55:04;;;;;;;6.72;2.35;;;;;;;;;;5079740;27;20043;-57
2023/03/11 03:57:30;;;;;;;6.13;2.45;;;;;;;;;;5074129;28;20091;-57
2023/03/11 03:59:56;;;;;;;5.85;2.83;;;;;;;;;;5079010;28;20047;-57
2023/03/11 04:02:22;;;;;;;4.45;3.05;;;;;;;;;;5081377;28;20883;-57
2023/03/11 04:04:48;;;;;;;5.25;2.70;;;;;;;;;;5079578;28;20118;-57
2023/03/11 04:07:14;;;;;;;4.15;2.83;;;;;;;;;;5080187;28;20092;-57
2023/03/11 04:09:41;;;;;;;3.72;2.70;;;;;;;;;;5082776;28;20048;-57
2023/03/11 04:12:07;;;;;;;4.50;2.65;;;;;;;;;;5084393;28;20751;-58
2023/03/11 04:14:33;;;;;;;6.28;2.85;;;;;;;;;;5082188;28;20050;-56
2023/03/11 04:16:59;;;;;;;5.25;3.40;;;;;;;;;;5080669;28;20053;-57
2023/03/11 04:19:25;;;;;;;9.57;3.30;;;;;;;;;;5079806;28;20117;-57
2023/03/11 04:21:52;;;;;;;3.90;2.83;;;;;;;;;;5081229;28;20101;-57
2023/03/11 04:24:18;;;;;;;6.32;3.08;;;;;;;;;;5080924;28;20048;-56
2023/03/11 04:26:44;;;;;;;6.13;3.10;;;;;;;;;;5083341;28;20076;-57
2023/03/11 04:29:11;;;;;;;6.30;3.03;;;;;;;;;;5079265;28;21811;-57
2023/03/11 04:31:37;;;;;;;5.13;3.17;;;;;;;;;;5082336;28;20032;-57
2023/03/11 04:34:03;;;;;;;3.70;2.30;;;;;;;;;;5079376;28;20036;-57
2023/03/11 04:36:29;;;;;;;8.68;3.67;;;;;;;;;;5083105;28;20046;-57
2023/03/11 04:38:56;;;;;;;7.15;4.32;;;;;;;;;;5078034;28;20414;-56
2023/03/11 04:41:22;;;;;;;6.78;5.10;;;;;;;;;;5075969;28;20044;-57
2023/03/11 04:43:49;;;;;;;4.65;2.17;;;;;;;;;;5083391;28;20526;-57
2023/03/11 04:46:15;;;;;;;6.18;2.72;;;;;;;;;;5081922;28;20044;-57
2023/03/11 04:48:41;;;;;;;5.88;2.55;;;;;;;;;;5083913;28;20076;-57
2023/03/11 04:51:07;;;;;;;4.68;3.53;;;;;;;;;;5081765;28;20032;-57
2023/03/11 04:53:33;;;;;;;4.57;2.65;;;;;;;;;;5080932;28;20040;-57
2023/03/11 04:55:59;;;;;;;5.38;3.30;;;;;;;;;;5081030;28;20043;-57
2023/03/11 04:58:26;;;;;;;3.40;2.30;;;;;;;;;;5081637;28;20052;-57
2023/03/11 05:00:52;;;;;;;4.90;3.67;;;;;;;;;;5079845;28;20660;-57
2023/03/11 05:03:19;;;;;;;4.03;2.47;;;;;;;;;;5083878;28;20032;-57
2023/03/11 05:05:45;;;;;;;4.68;3.25;;;;;;;;;;5082399;28;20520;-57
2023/03/11 05:08:11;;;;;;;6.82;3.45;;;;;;;;;;5083051;28;20186;-57
2023/03/11 05:10:39;;;;;;;5.07;2.58;;;;;;;;;;5082955;28;20036;-57
2023/03/11 05:13:05;;;;;;;5.97;3.00;;;;;;;;;;5079636;28;20045;-57
2023/03/11 05:15:31;;;;;;;5.43;2.95;;;;;;;;;;5082476;28;20512;-57
2023/03/11 05:17:57;;;;;;;5.05;2.95;;;;;;;;;;5081923;28;20970;-57
2023/03/11 05:20:25;;;;;;;4.38;2.75;;;;;;;;;;5081797;28;20053;-56
2023/03/11 05:22:51;;;;;;;5.43;2.72;;;;;;;;;;5081366;28;20032;-57
2023/03/11 05:25:17;;;;;;;5.32;3.22;;;;;;;;;;5079881;28;20129;-57
2023/03/11 05:27:43;;;;;;;4.47;2.72;;;;;;;;;;5082478;28;20527;-57
2023/03/11 05:30:10;;;;;;;3.85;2.67;;;;;;;;;;5081290;28;20102;-57
2023/03/11 05:32:36;;;;;;;3.72;2.50;;;;;;;;;;5077565;28;20652;-57
2023/03/11 05:35:02;;;;;;;6.38;2.60;;;;;;;;;;5079503;28;20960;-57
2023/03/11 05:37:31;;;;;;;5.68;3.00;;;;;;;;;;5082082;28;20161;-57
2023/03/11 05:39:57;;;;;;;4.07;2.13;;;;;;;;;;5080554;28;20946;-57
2023/03/11 05:42:23;;;;;;;4.05;2.00;;;;;;;;;;5082507;28;20624;-57
2023/03/11 05:44:49;;;;;;;4.47;2.25;;;;;;;;;;5079481;28;20095;-57
2023/03/11 05:47:16;;;;;;;3.67;2.17;;;;;;;;;;5075888;28;20044;-57
2023/03/11 05:49:42;;;;;;;2.88;1.75;;;;;;;;;;5074055;28;20070;-57
2023/03/11 05:52:08;;;;;;;5.93;2.10;;;;;;;;;;5080396;28;20047;-57
2023/03/11 05:54:34;;;;;;;4.63;2.17;;;;;;;;;;5081533;28;20115;-57
2023/03/11 05:57:01;;;;;;;3.13;1.60;;;;;;;;;;5079810;28;20129;-57
2023/03/11 05:59:27;;;;;;;2.60;2.05;;;;;;;;;;5081199;28;20044;-57
2023/03/11 06:01:53;;;;;;;2.80;1.88;;;;;;;;;;5076626;28;20059;-57
2023/03/11 06:04:19;;;;;;;3.00;1.90;;;;;;;;;;5080445;28;20614;-57
2023/03/11 06:06:45;;;;;;;3.65;1.83;;;;;;;;;;5079977;28;20052;-57
2023/03/11 06:09:14;;;;;;;3.58;2.10;;;;;;;;;;5079769;28;20055;-57
2023/03/11 06:11:41;;;;;;;2.60;1.50;;;;;;;;;;5081149;28;20040;-57
2023/03/11 06:14:07;;;;;;;5.70;2.03;;;;;;;;;;5081478;28;20048;-57
2023/03/11 06:16:33;;;;;;;5.10;2.58;;;;;;;;;;5075427;27;20057;-57
2023/03/11 06:18:59;;;;;;;3.55;1.83;;;;;;;;;;5077665;28;20098;-57
2023/03/11 06:21:26;;;;;;;4.35;2.20;;;;;;;;;;5078887;28;20037;-58
2023/03/11 06:23:52;;;;;;;2.78;2.17;;;;;;;;;;5077208;28;20078;-57
2023/03/11 06:26:19;;;;;;;2.63;1.60;;;;;;;;;;5081206;28;20041;-57
2023/03/11 06:28:45;;;;;;;3.17;2.10;;;;;;;;;;5078132;28;20033;-57
2023/03/11 06:31:14;;;;;;;6.32;2.03;;;;;;;;;;5078133;28;20123;-58
2023/03/11 06:33:40;;;;;;;4.22;1.90;;;;;;;;;;5075088;28;20094;-57
2023/03/11 06:36:06;;;;;;;4.30;2.83;;;;;;;;;;5073254;28;20571;-57
2023/03/11 06:38:33;;;;;;;3.45;1.92;;;;;;;;;;5073887;28;20036;-57
2023/03/11 06:41:02;;;;;;;2.97;2.10;;;;;;;;;;5076885;28;20086;-57
2023/03/11 06:43:30;;;;;;;2.58;1.75;;;;;;;;;;5080831;28;20076;-57
2023/03/11 06:45:56;;;;;;;3.85;1.88;;;;;;;;;;5077798;28;20063;-57
2023/03/11 06:48:22;;;;;;;4.57;2.30;;;;;;;;;;5078557;28;20055;-57
2023/03/11 06:50:59;;;;;;;2.72;1.67;;;;;;;;;;5082543;28;20115;-57
2023/03/11 06:53:25;;;;;;;2.70;1.92;;;;;;;;;;5082322;28;20040;-57
2023/03/11 06:56:05;;;;;;;5.15;2.55;;;;;;;;;;5076181;28;20044;-56
2023/03/11 06:58:31;;;;;;;4.32;2.05;;;;;;;;;;5081657;27;20091;-57
2023/03/11 07:01:01;;;;;;;4.85;3.15;;;;;;;;;;5079820;28;20036;-57
2023/03/11 07:03:28;;;;;;;4.75;2.10;;;;;;;;;;5080195;28;20048;-57
2023/03/11 07:05:54;;;;;;;4.00;2.55;;;;;;;;;;5081457;28;20040;-57
2023/03/11 07:08:20;;;;;;;3.42;2.63;;;;;;;;;;5081476;28;20160;-57
2023/03/11 07:10:47;;;;;;;4.13;2.50;;;;;;;;;;5080129;28;20063;-57
2023/03/11 07:13:13;;;;;;;3.88;2.53;;;;;;;;;;5076715;28;20044;-57
2023/03/11 07:15:39;;;;;;;4.10;2.30;;;;;;;;;;5078110;28;20052;-58
2023/03/11 07:18:06;;;;;;;4.18;3.28;;;;;;;;;;5079698;28;20040;-57
2023/03/11 07:20:32;;;;;;;4.85;2.72;;;;;;;;;;5078259;28;20887;-57
2023/03/11 07:22:58;;;;;;;3.88;2.33;;;;;;;;;;5094332;27;20105;-57
2023/03/11 07:25:24;;;;;;;5.68;2.85;;;;;;;;;;5073432;28;20045;-57
2023/03/11 07:27:50;;;;;;;3.65;2.85;;;;;;;;;;5080201;28;20127;-58
2023/03/11 07:30:16;;;;;;;5.38;3.42;;;;;;;;;;5080145;28;20040;-58
2023/03/11 07:32:42;;;;;;;3.90;2.33;;;;;;;;;;5078266;28;20122;-57
2023/03/11 07:35:08;;;;;;;5.10;2.38;;;;;;;;;;5079136;28;20058;-57
2023/03/11 07:37:34;;;;;;;5.15;2.47;;;;;;;;;;5081085;28;20039;-57
2023/03/11 07:40:00;;;;;;;6.07;2.80;;;;;;;;;;5075629;28;20490;-58
2023/03/11 07:42:26;;;;;;;4.72;2.65;;;;;;;;;;5072736;28;20537;-57
2023/03/11 07:44:52;;;;;;;4.10;2.33;;;;;;;;;;5075311;28;20131;-57
2023/03/11 07:47:18;;;;;;;3.47;2.40;;;;;;;;;;5081099;28;20046;-57
2023/03/11 07:49:45;;;;;;;5.78;2.47;;;;;;;;;;5078385;28;20545;-56
2023/03/11 07:52:11;;;;;;;7.28;3.42;;;;;;;;;;5080585;28;20462;-56
2023/03/11 07:54:37;;;;;;;4.38;2.75;;;;;;;;;;5078160;28;21109;-57
2023/03/11 07:57:03;;;;;;;3.85;2.38;;;;;;;;;;5078712;28;20050;-57
2023/03/11 07:59:29;;;;;;;3.55;2.33;;;;;;;;;;5081207;28;20040;-57
2023/03/11 08:01:55;;;;;;;4.72;3.33;;;;;;;;;;5079720;28;20502;-57
2023/03/11 08:04:21;;;;;;;5.65;2.70;;;;;;;;;;5081868;28;20044;-57
2023/03/11 08:06:48;;;;;;;3.47;2.20;;;;;;;;;;5082662;28;20041;-57
2023/03/11 08:09:14;;;;;;;4.43;2.25;;;;;;;;;;5081942;28;20937;-56
2023/03/11 08:11:40;;;;;;;5.72;2.50;;;;;;;;;;5079267;28;20121;-57
2023/03/11 08:14:06;;;;;;;3.80;3.03;;;;;;;;;;5080157;28;20082;-57
2023/03/11 08:16:33;;;;;;;5.38;2.72;;;;;;;;;;5077618;28;20064;-56
2023/03/11 08:18:59;;;;;;;3.63;2.00;;;;;;;;;;5076248;28;20041;-56
2023/03/11 08:21:26;;;;;;;3.10;1.73;;;;;;;;;;5079663;28;20127;-56
2023/03/11 08:23:56;;;;;;;3.90;2.17;;;;;;;;;;5077132;28;20049;-57
2023/03/11 08:26:22;;;;;;;5.15;2.50;;;;;;;;;;5075452;28;20056;-57
2023/03/11 08:28:48;;;;;;;4.22;2.50;;;;;;;;;;5076001;28;20036;-57
2023/03/11 08:31:19;;;;;;;3.65;1.63;;;;;;;;;;5075194;28;20122;-57
2023/03/11 08:33:46;;;;;;;5.10;1.95;;;;;;;;;;5080442;28;20055;-57
2023/03/11 08:36:12;;;;;;;3.90;1.95;;;;;;;;;;5080122;28;20895;-57
2023/03/11 08:38:38;;;;;;;3.72;2.03;;;;;;;;;;5079382;28;20048;-57
2023/03/11 08:41:05;;;;;;;4.20;3.20;;;;;;;;;;5079929;28;20051;-57
2023/03/11 08:43:31;;;;;;;4.60;2.35;;;;;;;;;;5076230;28;20071;-57
2023/03/11 08:45:59;;;;;;;3.60;1.90;;;;;;;;;;5079273;28;20047;-57
2023/03/11 08:48:25;;;;;;;3.20;2.20;;;;;;;;;;5082235;28;20040;-57
2023/03/11 08:50:51;;;;;;;4.85;2.35;;;;;;;;;;5084528;27;20040;-57
2023/03/11 08:53:17;;;;;;;4.28;2.67;;;;;;;;;;5083394;27;20078;-56
2023/03/11 08:55:43;;;;;;;3.00;2.45;;;;;;;;;;5081104;28;20067;-57
2023/03/11 08:58:09;;;;;;;4.93;2.67;;;;;;;;;;5081428;28;20075;-57
2023/03/11 09:00:36;;;;;;;3.88;2.25;;;;;;;;;;5076113;28;20040;-57
2023/03/11 09:03:02;;;;;;;3.63;1.90;;;;;;;;;;5077662;28;20051;-57
2023/03/11 09:05:28;;;;;;;2.22;1.67;;;;;;;;;;5085293;28;20534;-57
2023/03/11 09:07:54;;;;;;;3.53;1.98;;;;;;;;;;5080586;28;20032;-57
2023/03/11 09:10:20;;;;;;;4.03;1.85;;;;;;;;;;5084165;28;20052;-57
2023/03/11 09:12:46;;;;;;;3.67;1.98;;;;;;;;;;5075136;28;21778;-57
2023/03/11 09:15:12;;;;;;;9.40;3.05;;;;;;;;;;5076712;28;20076;-57
2023/03/11 09:17:38;;;;;;;5.75;1.90;;;;;;;;;;5077835;28;20074;-57
2023/03/11 09:20:04;;;;;;;3.97;2.60;;;;;;;;;;5079125;28;20036;-57
2023/03/11 09:22:30;;;;;;;3.95;2.60;;;;;;;;;;5078301;28;20413;-56
2023/03/11 09:24:57;;;;;;;4.82;2.40;;;;;;;;;;5084346;28;20164;-57
2023/03/11 09:27:23;;;;;;;3.72;1.92;;;;;;;;;;5082096;28;20036;-57
2023/03/11 09:29:49;;;;;;;4.50;2.22;;;;;;;;;;5083582;28;20044;-57
2023/03/11 09:32:15;;;;;;;2.22;1.42;;;;;;;;;;5083499;28;20036;-57
2023/03/11 09:34:41;;;;;;;7.55;2.28;;;;;;;;;;5080755;28;20040;-57
2023/03/11 09:37:07;;;;;;;3.78;2.13;;;;;;;;;;5079872;28;20049;-57
2023/03/11 09:39:34;;;;;;;4.20;1.70;;;;;;;;;;5084367;28;20107;-57
2023/03/11 09:42:04;;;;;;;3.75;1.75;;;;;;;;;;5082945;28;20056;-57
2023/03/11 09:44:34;;;;;;;3.53;2.30;;;;;;;;;;5081538;28;20040;-57
2023/03/11 09:47:13;;;;;;;3.83;2.05;;;;;;;;;;5082123;28;20066;-57
2023/03/11 09:49:39;;;;;;;4.68;2.15;;;;;;;;;;5082388;28;20044;-57
2023/03/11 09:52:15;;;;;;;3.53;1.90;;;;;;;;;;5081419;28;20522;-57
2023/03/11 09:55:01;;;;;;;4.07;2.40;;;;;;;;;;5082283;28;20075;-57
2023/03/11 09:57:29;;;;;;;2.70;1.80;;;;;;;;;;5080882;28;20075;-57
2023/03/11 09:59:55;;;;;;;4.20;2.47;;;;;;;;;;5073726;28;20056;-57
2023/03/11 10:02:25;;;;;;;3.40;2.40;;;;;;;;;;5079625;28;20048;-57
2023/03/11 10:04:51;;;;;;;4.00;2.20;;;;;;;;;;5076178;28;21581;-57
2023/03/11 10:07:21;;;;;;;3.83;1.95;;;;;;;;;;5076923;28;20041;-57
2023/03/11 10:09:52;;;;;;;3.47;2.28;;;;;;;;;;5079460;28;20072;-57
2023/03/11 10:12:20;;;;;;;6.70;2.20;;;;;;;;;;5081481;28;20051;-57
2023/03/11 10:15:14;;;;;;;4.68;2.78;;;;;;;;;;5074175;28;20044;-57
2023/03/11 10:17:43;;;;;;;5.78;2.90;;;;;;;;;;5075126;28;20040;-56
2023/03/11 10:20:20;;;;;;;4.15;2.70;;;;;;;;;;5074001;28;20335;-56
2023/03/11 10:22:56;;;;;;;3.67;2.25;;;;;;;;;;5073946;28;20048;-57
2023/03/11 10:25:28;;;;;;;4.05;2.28;;;;;;;;;;5082425;28;20040;-57
2023/03/11 10:28:05;;;;;;;3.58;1.95;;;;;;;;;;5081273;28;20626;-57
2023/03/11 10:30:34;;;;;;;8.27;2.28;;;;;;;;;;5083895;28;20526;-56
2023/03/11 10:33:07;;;;;;;2.95;2.22;;;;;;;;;;5082149;28;20040;-57
2023/03/11 10:35:33;;;;;;;5.78;2.17;;;;;;;;;;5084361;28;20046;-57
2023/03/11 10:38:05;;;;;;;3.22;2.13;;;;;;;;;;5083477;28;20037;-56
2023/03/11 10:40:32;;;;;;;3.40;1.83;;;;;;;;;;5083639;28;20529;-57
2023/03/11 10:43:01;;;;;;;3.63;2.38;;;;;;;;;;5080915;28;20040;-57
2023/03/11 10:45:28;;;;;;;3.95;2.30;;;;;;;;;;5081523;28;20040;-57
2023/03/11 10:47:56;;;;;;;4.65;2.70;;;;;;;;;;5080723;28;20044;-57
2023/03/11 10:50:22;;;;;;;3.58;2.17;;;;;;;;;;5081585;28;20078;-57
2023/03/11 10:53:14;;;;;;;4.93;2.50;;;;;;;;;;5081987;28;20037;-56
2023/03/11 10:55:49;;;;;;;3.33;2.07;;;;;;;;;;5081383;28;20040;-57
2023/03/11 10:58:18;;;;;;;2.97;1.95;;;;;;;;;;5079964;28;20359;-56
2023/03/11 11:00:44;;;;;;;3.85;2.00;;;;;;;;;;5081787;28;20033;-57
2023/03/11 11:03:16;;;;;;;3.15;2.08;;;;;;;;;;5081097;28;21179;-56
2023/03/11 11:05:42;;;;;;;3.83;2.42;;;;;;;;;;5080461;28;20055;-56
2023/03/11 11:08:16;;;;;;;2.92;2.00;;;;;;;;;;5080654;28;20119;-56
2023/03/11 11:10:55;;;;;;;4.03;2.00;;;;;;;;;;5083769;28;20524;-57
2023/03/11 11:13:25;;;;;;;4.78;2.35;;;;;;;;;;5080952;28;20051;-56
2023/03/11 11:15:51;;;;;;;3.03;2.13;;;;;;;;;;5083434;28;20048;-57
2023/03/11 11:18:20;;;;;;;3.60;2.05;;;;;;;;;;5082943;28;20113;-57
2023/03/11 11:21:05;;;;;;;3.45;1.98;;;;;;;;;;5082916;28;20085;-56
2023/03/11 11:23:31;;;;;;;2.75;2.00;;;;;;;;;;5081223;28;20123;-56
2023/03/11 11:25:58;;;;;;;3.42;1.88;;;;;;;;;;5081377;28;20035;-56
2023/03/11 11:28:24;;;;;;;3.63;2.05;;;;;;;;;;5082997;28;20063;-56
2023/03/11 11:30:53;;;;;;;5.07;2.33;;;;;;;;;;5083151;28;20734;-56
2023/03/11 11:33:24;;;;;;;3.05;1.80;;;;;;;;;;5083567;28;20051;-56
2023/03/11 11:35:55;;;;;;;3.67;2.00;;;;;;;;;;5084463;28;20041;-56
2023/03/11 11:38:25;;;;;;;3.97;2.25;;;;;;;;;;5081771;27;20043;-56
2023/03/11 11:40:52;;;;;;;4.38;2.30;;;;;;;;;;5083794;28;20036;-56
2023/03/11 11:43:21;;;;;;;2.88;2.00;;;;;;;;;;5083121;28;20055;-56
2023/03/11 11:45:53;;;;;;;4.97;2.42;;;;;;;;;;5083360;28;20138;-56
2023/03/11 11:48:19;;;;;;;;;;;;;;;;;;5082811;27;20850;-56
2023/03/11 11:50:48;;;;;;;4.10;2.08;;;;;;;;;;5083879;28;19952;-57
2023/03/11 11:53:14;;;;;;;5.28;2.40;;;;;;;;;;5081611;28;20048;-56
2023/03/11 11:55:48;;;;;;;2.83;2.10;;;;;;;;;;5082870;28;20603;-56
2023/03/11 11:58:14;;;;;;;3.92;1.90;;;;;;;;;;5080327;28;21205;-57
2023/03/11 12:00:40;;;;;;;3.67;2.15;;;;;;;;;;5075045;28;20060;-56
2023/03/11 12:03:25;;;;;;;3.75;2.28;;;;;;;;;;5079288;28;20049;-56
2023/03/11 12:05:54;;;;;;;3.83;2.67;;;;;;;;;;5078131;28;20040;-56
2023/03/11 12:08:26;;;;;;;4.90;3.13;;;;;;;;;;5080358;28;20040;-57
2023/03/11 12:11:06;;;;;;;5.25;3.55;;;;;;;;;;5079277;28;20078;-57
2023/03/11 12:13:41;;;;;;;5.00;2.67;;;;;;;;;;5074296;28;20088;-56
2023/03/11 12:16:14;;;;;;;4.03;2.70;;;;;;;;;;5074439;28;20524;-57
2023/03/11 12:18:43;;;;;;;7.20;3.13;;;;;;;;;;5081743;28;20518;-57
2023/03/11 12:21:22;;;;;;;6.93;4.53;;;;;;;;;;5084143;28;20711;-56
2023/03/11 12:23:51;;;;;;;5.28;3.72;;;;;;;;;;5084308;28;20632;-57
2023/03/11 12:26:26;;;;;;;7.80;4.05;;;;;;;;;;5081654;28;20044;-57
2023/03/11 12:29:06;;;;;;;6.13;3.40;;;;;;;;;;5079023;28;22101;-57
2023/03/11 12:31:37;;;;;;;7.55;4.70;;;;;;;;;;5082515;28;20044;-57
2023/03/11 12:34:04;;;;;;;8.43;5.63;;;;;;;;;;5081097;28;20127;-56
2023/03/11 12:36:31;;;;;;;6.82;5.25;;;;;;;;;;5078680;28;20044;-57
2023/03/11 12:38:58;;;;;;;8.13;4.72;;;;;;;;;;5079300;28;20056;-57
2023/03/11 12:41:29;;;;;;;7.82;4.65;;;;;;;;;;5080091;28;20078;-57
2023/03/11 12:43:59;;;;;;;6.78;4.15;;;;;;;;;;5080442;28;20040;-57
2023/03/11 12:46:44;;;;;;;8.85;5.53;;;;;;;;;;5076469;28;20044;-57
2023/03/11 12:49:12;;;;;;;7.88;5.60;;;;;;;;;;5081765;28;20984;-56
2023/03/11 12:51:39;;;;;;;8.38;4.88;;;;;;;;;;5082014;28;20040;-56
2023/03/11 12:54:20;;;;;;;7.28;5.18;;;;;;;;;;5083254;28;20044;-57
2023/03/11 12:56:58;;;;;;;8.23;5.55;;;;;;;;;;5081685;28;20095;-56
2023/03/11 12:59:24;;;;;;;7.43;4.50;;;;;;;;;;5079398;28;20040;-56
2023/03/11 13:01:58;;;;;;;7.75;5.15;;;;;;;;;;5078659;28;20044;-57
2023/03/11 13:04:36;;;;;;;7.20;4.65;;;;;;;;;;5077983;28;20048;-57
2023/03/11 13:07:04;;;;;;;8.40;4.50;;;;;;;;;;5076712;28;20039;-56
2023/03/11 13:09:31;;;;;;;7.07;4.60;;;;;;;;;;5077726;28;20549;-57
2023/03/11 13:11:57;;;;;;;7.18;4.30;;;;;;;;;;5079195;28;20562;-56
2023/03/11 13:14:31;;;;;;;7.32;3.70;;;;;;;;;;5079422;28;20045;-57
2023/03/11 13:17:17;;;;;;;5.13;3.33;;;;;;;;;;5077617;28;20059;-57
2023/03/11 13:19:48;;;;;;;3.90;3.20;;;;;;;;;;5072130;28;20106;-57
2023/03/11 13:22:33;;;;;;;6.13;3.05;;;;;;;;;;5078690;28;21492;-57
2023/03/11 13:25:03;;;;;;;6.03;3.53;;;;;;;;;;5077813;28;20055;-57
2023/03/11 13:27:34;;;;;;;4.32;3.20;;;;;;;;;;5078114;28;20161;-56
2023/03/11 13:30:06;;;;;;;5.22;2.72;;;;;;;;;;5074657;28;20047;-56
2023/03/11 13:32:44;;;;;;;5.80;3.10;;;;;;;;;;5077633;28;20040;-57
2023/03/11 13:35:24;;;;;;;7.10;2.80;;;;;;;;;;5080774;28;20103;-57
2023/03/11 13:38:08;;;;;;;3.90;2.67;;;;;;;;;;5082949;28;20041;-57
2023/03/11 13:40:41;;;;;;;2.85;2.15;;;;;;;;;;5075689;28;20122;-57
2023/03/11 13:43:19;;;;;;;7.95;3.28;;;;;;;;;;5076859;28;20110;-57
2023/03/11 13:45:51;;;;;;;3.53;2.45;;;;;;;;;;5080885;28;20040;-57
2023/03/11 13:48:29;;;;;;;3.97;2.50;;;;;;;;;;5077478;28;20059;-56
2023/03/11 13:51:04;;;;;;;4.82;2.55;;;;;;;;;;5077712;28;20044;-57
2023/03/11 13:53:37;;;;;;;4.22;2.70;;;;;;;;;;5078296;28;20056;-56
2023/03/11 13:56:03;;;;;;;2.75;1.90;;;;;;;;;;5078915;28;20523;-57
2023/03/11 13:58:30;;;;;;;4.10;2.45;;;;;;;;;;5079603;28;20582;-57
2023/03/11 14:01:00;;;;;;;3.47;2.00;;;;;;;;;;5080405;28;20166;-57
2023/03/11 14:03:27;;;;;;;3.38;2.40;;;;;;;;;;5080087;28;20552;-56
2023/03/11 14:05:58;;;;;;;3.13;2.05;;;;;;;;;;5082745;28;20060;-56
2023/03/11 14:08:33;;;;;;;4.25;2.50;;;;;;;;;;5077762;28;20051;-57
2023/03/11 14:11:00;;;;;;;5.65;3.17;;;;;;;;;;5085281;28;20098;-56
2023/03/11 14:13:28;;;;;;;5.68;2.80;;;;;;;;;;5080955;27;20071;-56
2023/03/11 14:15:57;;;;;;;4.32;2.90;;;;;;;;;;5079587;28;20053;-56
2023/03/11 14:18:25;;;;;;;3.72;2.13;;;;;;;;;;5082936;28;20129;-56
2023/03/11 14:20:51;;;;;;;5.50;2.40;;;;;;;;;;5083173;28;20485;-57
2023/03/11 14:23:19;;;;;;;3.78;2.50;;;;;;;;;;5081916;28;20055;-57
2023/03/11 14:25:45;;;;;;;4.15;2.78;;;;;;;;;;5078616;28;20447;-56
2023/03/11 14:28:20;;;;;;;5.45;2.90;;;;;;;;;;5078644;28;20132;-56
2023/03/11 14:30:57;;;;;;;5.40;2.95;;;;;;;;;;5083876;28;20036;-56
2023/03/11 14:33:23;;;;;;;3.40;2.60;;;;;;;;;;5080605;28;20051;-57
2023/03/11 14:35:52;;;;;;;3.67;2.50;;;;;;;;;;5081537;28;20043;-56
2023/03/11 14:38:26;;;;;;;3.17;2.50;;;;;;;;;;5082919;28;20036;-56
2023/03/11 14:40:54;;;;;;;4.90;2.63;;;;;;;;;;5084678;28;20036;-56
2023/03/11 14:43:20;;;;;;;6.30;2.95;;;;;;;;;;5081318;28;20115;-56
2023/03/11 14:45:48;;;;;;;6.82;3.13;;;;;;;;;;5080770;27;20113;-56
2023/03/11 14:48:18;;;;;;;3.88;2.08;;;;;;;;;;5081068;28;20086;-56
2023/03/11 14:50:48;;;;;;;3.42;2.30;;;;;;;;;;5080898;28;20040;-56